createdAt,value
2023-01-23T00:19:14.267Z,0.38
2023-01-23T00:49:14.267Z,0.94
2023-01-23T01:19:14.290Z,0.94
2023-01-23T01:49:14.276Z,1.13
2023-01-23T02:19:14.276Z,1.31
2023-01-23T02:49:14.267Z,1.31
2023-01-23T03:19:14.280Z,1.19
2023-01-23T03:49:14.290Z,1.25
2023-01-23T04:19:14.302Z,1.25
2023-01-23T04:49:14.297Z,1.19
2023-01-23T05:19:14.303Z,1.25
2023-01-23T05:49:14.320Z,1.13
2023-01-23T06:19:14.324Z,1.19
2023-01-23T06:49:14.318Z,1.19
2023-01-23T07:19:14.331Z,1.31
2023-01-23T07:49:14.322Z,1.5
2023-01-23T08:19:14.330Z,1.56
2023-01-23T08:49:14.344Z,1.13
2023-01-23T09:19:14.348Z,2.13
2023-01-23T09:49:14.343Z,2.5
2023-01-23T10:19:14.350Z,2.19
2023-01-23T10:49:14.343Z,2.69
2023-01-23T11:19:14.359Z,2.5
2023-01-23T11:49:14.362Z,1.69
2023-01-23T12:19:14.362Z,2.88
2023-01-23T12:49:14.391Z,3.81
2023-01-23T13:19:14.377Z,4.5
2023-01-23T14:49:14.411Z,3.56
2023-01-23T15:19:14.402Z,2.94
2023-01-23T15:49:24.901Z,3.19
2023-01-23T16:19:14.425Z,2.69
2023-01-23T16:49:14.415Z,1.63
2023-01-23T17:19:14.410Z,1.63
2023-01-23T17:49:14.415Z,1.81
2023-01-23T18:19:14.419Z,1.81
2023-01-23T18:49:21.438Z,2
2023-01-23T19:19:16.158Z,2.5
2023-01-23T19:49:14.465Z,2.5
2023-01-23T20:19:14.469Z,2.19
2023-01-23T20:49:14.443Z,2.13
2023-01-23T21:19:14.449Z,2.25
2023-01-23T21:49:14.453Z,2.25
2023-01-23T22:19:14.462Z,2
2023-01-23T22:49:14.474Z,1.69
2023-01-23T23:19:14.471Z,1.56
2023-01-23T23:49:14.477Z,2
